Time;durP1;ratioP1;P1;durP2;ratioP2;P2;SDS_P1;SDS_P2;PMS_P1;PMS_P2;Temp;Humidity;BMP_temperature;BMP_pressure;BME280_temperature;BME280_humidity;BME280_pressure;Samples;Min_cycle;Max_cycle;Signal;HPM_P1;HPM_P2
2021/03/18 00:01:36;;;;;;;42.53;12.00;;;;;;;-0.70;100.00;101994.22;5011958;28;20281;-77
2021/03/18 00:04:02;;;;;;;49.30;11.33;;;;;;;-0.64;100.00;101997.19;5011150;28;20732;-77
2021/03/18 00:06:27;;;;;;;38.10;12.20;;;;;;;-0.56;100.00;101999.41;5011969;28;20280;-76
2021/03/18 00:08:53;;;;;;;54.20;12.47;;;;;;;-0.43;100.00;102002.91;5008229;28;20024;-76
2021/03/18 00:11:21;;;;;;;43.57;13.50;;;;;;;-0.42;100.00;101990.94;5013380;28;20108;-76
2021/03/18 00:13:47;;;;;;;51.87;12.90;;;;;;;-0.25;100.00;101987.78;5013345;28;20149;-76
2021/03/18 00:16:13;;;;;;;54.83;14.07;;;;;;;-0.02;100.00;101986.72;5011226;28;20759;-76
2021/03/18 00:18:45;;;;;;;67.17;14.83;;;;;;;0.14;100.00;101999.78;5010707;28;20431;-77
2021/03/18 00:21:14;;;;;;;58.45;14.18;;;;;;;0.27;100.00;101996.31;5011426;28;20762;-77
2021/03/18 00:23:40;;;;;;;53.13;14.07;;;;;;;0.32;100.00;102002.63;5011981;28;20028;-77
2021/03/18 00:26:06;;;;;;;38.70;13.20;;;;;;;0.41;100.00;102003.22;5011162;28;20712;-77
2021/03/18 00:28:33;;;;;;;58.53;14.47;;;;;;;0.50;100.00;101998.66;5011006;28;20498;-77
2021/03/18 00:31:00;;;;;;;51.27;14.50;;;;;;;0.57;100.00;101990.53;5011770;28;20674;-77
2021/03/18 00:33:26;;;;;;;52.63;15.03;;;;;;;0.63;100.00;101984.88;5012028;28;20260;-77
2021/03/18 00:35:52;;;;;;;49.50;14.43;;;;;;;0.70;100.00;101973.25;5011027;28;20272;-77
2021/03/18 00:38:18;;;;;;;45.60;13.50;;;;;;;0.76;100.00;101990.00;5012319;28;20342;-77
2021/03/18 00:40:52;;;;;;;52.37;13.33;;;;;;;0.82;100.00;101989.47;4994212;28;20284;-77
2021/03/18 00:43:20;;;;;;;54.70;13.90;;;;;;;0.90;100.00;101984.78;5009101;28;20041;-77
2021/03/18 00:45:47;;;;;;;59.47;13.10;;;;;;;0.96;100.00;101986.03;5010725;28;20291;-77
2021/03/18 00:48:14;;;;;;;71.27;14.47;;;;;;;1.08;100.00;101989.34;5012243;28;20292;-77
2021/03/18 00:50:52;;;;;;;51.80;12.40;;;;;;;1.09;100.00;101986.03;5009596;28;20315;-77
2021/03/18 00:53:23;;;;;;;59.20;11.23;;;;;;;1.09;100.00;101985.09;5010697;28;20673;-77
2021/03/18 00:55:51;;;;;;;67.90;12.57;;;;;;;1.17;100.00;101978.72;5009322;28;20304;-77
2021/03/18 00:58:17;;;;;;;60.70;12.33;;;;;;;1.17;100.00;101974.47;5011858;28;20745;-77
2021/03/18 01:00:54;;;;;;;56.07;11.97;;;;;;;1.12;100.00;101973.31;5012824;28;20567;-77
2021/03/18 01:03:21;;;;;;;69.10;13.10;;;;;;;1.10;100.00;101972.34;5010722;28;20281;-77
2021/03/18 01:06:13;;;;;;;71.10;12.13;;;;;;;1.13;100.00;101977.66;5009092;28;20660;-77
2021/03/18 01:08:39;;;;;;;71.40;13.03;;;;;;;1.13;100.00;101971.63;5007797;28;20316;-77
2021/03/18 01:11:07;;;;;;;84.00;12.27;;;;;;;1.12;100.00;101975.88;5007599;28;20530;-77
2021/03/18 01:13:34;;;;;;;103.10;15.53;;;;;;;1.11;100.00;101968.97;5008971;28;20339;-77
2021/03/18 01:16:06;;;;;;;90.47;14.00;;;;;;;1.12;100.00;101965.59;5010809;28;20374;-77
2021/03/18 01:18:51;;;;;;;78.90;13.80;;;;;;;1.11;100.00;101963.81;5011378;28;20305;-77
2021/03/18 01:21:18;;;;;;;83.07;14.10;;;;;;;1.08;100.00;101953.31;5009653;28;20296;-77
2021/03/18 01:23:43;;;;;;;102.37;15.87;;;;;;;1.15;100.00;101976.06;5011638;28;20292;-77
2021/03/18 01:26:10;;;;;;;88.37;14.80;;;;;;;1.10;100.00;101972.34;5011332;28;20273;-77
2021/03/18 01:28:36;;;;;;;69.43;13.23;;;;;;;1.07;100.00;101969.56;5008202;28;20026;-77
2021/03/18 01:31:05;;;;;;;96.00;13.73;;;;;;;1.08;100.00;101963.59;5011037;28;20776;-77
2021/03/18 01:33:31;;;;;;;85.93;13.73;;;;;;;1.11;100.00;101961.25;5010047;28;20288;-77
2021/03/18 01:35:57;;;;;;;107.13;14.67;;;;;;;1.12;100.00;101956.97;5010600;28;20292;-77
2021/03/18 01:38:22;;;;;;;101.57;14.73;;;;;;;1.11;100.00;101953.50;5011274;28;20764;-77
2021/03/18 01:40:48;;;;;;;78.80;13.30;;;;;;;1.12;100.00;101947.56;5011361;28;20025;-77
2021/03/18 01:43:13;;;;;;;72.33;11.50;;;;;;;1.00;100.00;101944.25;5010697;28;20041;-77
2021/03/18 01:45:40;;;;;;;68.73;11.80;;;;;;;1.03;100.00;101944.41;5010436;28;20038;-77
2021/03/18 01:48:06;;;;;;;84.37;13.20;;;;;;;1.04;100.00;101945.31;5012209;28;20524;-77
2021/03/18 01:50:35;;;;;;;71.63;11.90;;;;;;;1.04;100.00;101935.91;5011051;28;20330;-77
2021/03/18 01:53:00;;;;;;;66.27;11.97;;;;;;;1.10;100.00;101938.84;5010834;28;20284;-77
2021/03/18 01:55:26;;;;;;;67.63;10.77;;;;;;;1.14;100.00;101938.22;5009990;28;20284;-77
2021/03/18 01:57:51;;;;;;;71.03;11.37;;;;;;;1.09;100.00;101939.66;5011074;28;20526;-78
2021/03/18 02:00:25;;;;;;;60.57;10.93;;;;;;;1.10;100.00;101936.28;5011084;28;20034;-77
2021/03/18 02:02:51;;;;;;;51.83;9.33;;;;;;;1.12;100.00;101931.22;4993210;28;20053;-77
2021/03/18 02:05:17;;;;;;;51.80;10.13;;;;;;;1.14;100.00;101940.81;5006570;28;20288;-77
2021/03/18 02:07:42;;;;;;;45.83;9.43;;;;;;;1.12;100.00;101936.38;5011693;28;20105;-77
2021/03/18 02:10:09;;;;;;;53.87;11.53;;;;;;;1.15;100.00;101924.53;5011043;28;20026;-77
2021/03/18 02:12:36;;;;;;;54.87;10.70;;;;;;;1.10;100.00;101917.38;5009736;28;20025;-77
2021/03/18 02:15:04;;;;;;;50.13;10.70;;;;;;;1.15;100.00;101932.28;5011619;28;20367;-77
2021/03/18 02:17:40;;;;;;;49.53;10.87;;;;;;;1.16;100.00;101936.63;5010371;28;20363;-77
2021/03/18 02:20:33;;;;;;;51.07;10.73;;;;;;;1.16;100.00;101926.31;5010702;28;20324;-77
2021/03/18 02:23:37;;;;;;;63.47;11.57;;;;;;;1.20;100.00;101934.22;5008226;28;21011;-78
2021/03/18 02:26:31;;;;;;;58.83;11.47;;;;;;;1.26;100.00;101924.28;5006757;28;20358;-77
2021/03/18 02:29:15;;;;;;;55.57;12.20;;;;;;;1.24;100.00;101923.31;5009313;28;20754;-77
2021/03/18 02:32:19;;;;;;;56.57;11.37;;;;;;;1.25;100.00;101914.78;5010504;28;20288;-77
2021/03/18 02:35:26;;;;;;;48.97;11.57;;;;;;;1.21;100.00;101911.13;5008862;28;20316;-77
2021/03/18 02:37:57;;;;;;;47.10;10.87;;;;;;;1.23;100.00;101916.41;5007306;28;20276;-77
2021/03/18 02:40:24;;;;;;;59.80;12.00;;;;;;;1.17;100.00;101911.75;5011284;28;20972;-77
2021/03/18 02:42:56;;;;;;;61.00;12.30;;;;;;;1.23;100.00;101916.41;5014740;28;20763;-77
2021/03/18 02:45:28;;;;;;;63.63;12.43;;;;;;;1.23;100.00;101906.97;5012662;28;20284;-77
2021/03/18 02:47:56;;;;;;;63.77;12.87;;;;;;;1.20;100.00;101901.63;5015261;28;20433;-77
2021/03/18 02:50:23;;;;;;;66.17;13.27;;;;;;;1.21;100.00;101900.81;5014776;28;20331;-77
2021/03/18 02:52:50;;;;;;;67.37;14.37;;;;;;;1.17;100.00;101901.44;5014719;28;20285;-77
2021/03/18 02:55:17;;;;;;;54.90;14.10;;;;;;;1.09;100.00;101903.59;5014549;28;20334;-77
2021/03/18 02:57:44;;;;;;;66.63;13.00;;;;;;;1.08;100.00;101908.63;5014312;28;20282;-77
2021/03/18 03:00:11;;;;;;;42.60;10.43;;;;;;;1.03;100.00;101918.66;5015007;28;20299;-77
2021/03/18 03:02:38;;;;;;;53.03;10.90;;;;;;;1.01;100.00;101924.53;5014773;28;20285;-77
2021/03/18 03:05:09;;;;;;;54.63;11.93;;;;;;;0.99;100.00;101921.88;5014847;28;20641;-77
2021/03/18 03:07:35;;;;;;;46.07;10.23;;;;;;;0.97;100.00;101917.41;5014608;28;20415;-77
2021/03/18 03:10:04;;;;;;;40.60;8.93;;;;;;;0.87;100.00;101921.13;5014444;28;20332;-77
2021/03/18 03:12:33;;;;;;;51.43;11.13;;;;;;;0.92;100.00;101919.72;5014379;28;20334;-77
2021/03/18 03:14:59;;;;;;;47.10;10.30;;;;;;;0.97;100.00;101922.56;5015015;28;20264;-77
2021/03/18 03:17:27;;;;;;;32.27;8.00;;;;;;;0.90;100.00;101915.28;5013914;28;20360;-77
2021/03/18 03:19:55;;;;;;;43.07;8.97;;;;;;;0.82;100.00;101907.06;5014448;28;20781;-77
2021/03/18 03:22:21;;;;;;;46.40;8.47;;;;;;;0.79;100.00;101904.31;5013959;28;20922;-77
2021/03/18 03:24:47;;;;;;;36.07;8.80;;;;;;;0.71;100.00;101897.81;5013590;28;20283;-77
2021/03/18 03:27:14;;;;;;;40.27;9.10;;;;;;;0.72;100.00;101889.28;5012880;28;20658;-77
2021/03/18 03:29:44;;;;;;;30.60;7.30;;;;;;;0.69;100.00;101891.69;5013655;28;20268;-77
2021/03/18 03:32:11;;;;;;;32.33;7.80;;;;;;;0.62;100.00;101893.03;5013133;28;20280;-77
2021/03/18 03:34:39;;;;;;;51.07;9.73;;;;;;;0.65;100.00;101887.16;5003889;28;20261;-77
2021/03/18 03:37:06;;;;;;;39.53;8.97;;;;;;;0.66;100.00;101891.53;5010539;28;20280;-77
2021/03/18 03:39:36;;;;;;;43.80;9.30;;;;;;;0.68;100.00;101882.19;5011620;28;20331;-77
2021/03/18 03:42:09;;;;;;;33.40;8.33;;;;;;;0.69;100.00;101883.97;5014033;28;20296;-77
2021/03/18 03:44:35;;;;;;;;;;;;;;;0.66;100.00;101894.97;5014877;28;20414;-77
2021/03/18 03:47:02;;;;;;;35.33;8.23;;;;;;;0.66;100.00;101894.09;5013449;28;19961;-78
2021/03/18 03:49:28;;;;;;;40.30;7.73;;;;;;;0.66;100.00;101899.25;5013557;28;20629;-79
2021/03/18 03:52:15;;;;;;;38.57;8.93;;;;;;;0.63;100.00;101905.09;5014094;28;20273;-77
2021/03/18 03:54:48;;;;;;;38.77;9.27;;;;;;;0.62;100.00;101898.19;5005173;28;20269;-77
2021/03/18 03:57:26;;;;;;;33.90;8.87;;;;;;;0.61;100.00;101891.25;5013760;28;20281;-77
2021/03/18 03:59:56;;;;;;;35.67;9.07;;;;;;;0.63;100.00;101881.03;5013186;28;20291;-77
2021/03/18 04:02:24;;;;;;;46.23;10.07;;;;;;;0.67;100.00;101880.44;5013634;28;20265;-77
2021/03/18 04:04:50;;;;;;;38.00;9.00;;;;;;;0.63;100.00;101884.50;5015195;28;20268;-77
2021/03/18 04:07:22;;;;;;;31.33;8.53;;;;;;;0.58;100.00;101870.44;5013322;28;20348;-77
2021/03/18 04:09:49;;;;;;;41.50;7.97;;;;;;;0.59;100.00;101867.09;5013605;28;20319;-77
2021/03/18 04:12:18;;;;;;;45.30;8.57;;;;;;;0.65;100.00;101866.56;5013223;28;20291;-77
2021/03/18 04:14:56;;;;;;;38.80;8.73;;;;;;;0.71;100.00;101869.50;5013815;28;20277;-77
2021/03/18 04:17:24;;;;;;;48.70;8.53;;;;;;;0.74;100.00;101872.28;5012725;28;20336;-77
2021/03/18 04:19:55;;;;;;;40.37;8.50;;;;;;;0.71;100.00;101877.22;4993687;28;20311;-77
2021/03/18 04:22:23;;;;;;;40.57;8.70;;;;;;;0.72;100.00;101873.84;4993490;28;20795;-77
2021/03/18 04:24:51;;;;;;;36.73;8.53;;;;;;;0.76;100.00;101875.84;4986783;28;20265;-77
2021/03/18 04:27:18;;;;;;;38.43;8.70;;;;;;;0.84;100.00;101882.31;4994028;28;20272;-77
2021/03/18 04:29:45;;;;;;;41.93;10.33;;;;;;;0.83;100.00;101867.66;4992313;28;20269;-77
2021/03/18 04:32:12;;;;;;;46.73;8.27;;;;;;;0.88;100.00;101866.25;4993367;28;20299;-77
2021/03/18 04:34:39;;;;;;;53.40;11.00;;;;;;;0.92;100.00;101873.34;4993609;28;20304;-77
2021/03/18 04:37:07;;;;;;;52.40;9.87;;;;;;;0.94;100.00;101861.47;4992960;28;20333;-77
2021/03/18 04:39:34;;;;;;;49.47;10.00;;;;;;;0.99;100.00;101869.47;4987207;28;20285;-77
2021/03/18 04:42:01;;;;;;;47.27;9.43;;;;;;;0.98;100.00;101858.28;4992558;28;20312;-77
2021/03/18 04:44:27;;;;;;;49.43;9.27;;;;;;;0.97;100.00;101856.53;4992839;28;20269;-77
2021/03/18 04:46:55;;;;;;;53.63;11.03;;;;;;;1.03;100.00;101849.13;4993427;28;20261;-77
2021/03/18 04:49:22;;;;;;;60.37;10.97;;;;;;;1.05;100.00;101855.25;4992854;28;20269;-77
2021/03/18 04:51:48;;;;;;;47.40;10.53;;;;;;;1.12;100.00;101847.09;4993056;28;20281;-77
2021/03/18 04:54:14;;;;;;;62.10;12.90;;;;;;;1.13;100.00;101842.84;4993024;28;20281;-77
2021/03/18 04:56:42;;;;;;;48.90;10.03;;;;;;;1.21;100.00;101845.84;4993349;28;20027;-77
2021/03/18 04:59:09;;;;;;;59.60;10.27;;;;;;;1.20;100.00;101838.91;4992221;28;20269;-77
2021/03/18 05:01:36;;;;;;;51.13;10.30;;;;;;;1.17;100.00;101835.34;4992592;28;20335;-77
2021/03/18 05:04:04;;;;;;;59.70;10.60;;;;;;;1.21;100.00;101835.53;4991851;28;20274;-77
2021/03/18 05:06:31;;;;;;;56.93;10.23;;;;;;;1.27;100.00;101830.75;4993251;28;20275;-76
2021/03/18 05:09:00;;;;;;;35.50;8.37;;;;;;;1.28;100.00;101827.38;4992860;28;20277;-76
2021/03/18 05:11:26;;;;;;;44.30;10.10;;;;;;;1.26;100.00;101819.56;4992198;28;20268;-76
2021/03/18 05:13:53;;;;;;;46.43;9.50;;;;;;;1.30;100.00;101830.91;4992957;28;20730;-76
2021/03/18 05:16:19;;;;;;;42.77;8.87;;;;;;;1.27;100.00;101835.91;4993209;28;20034;-76
2021/03/18 05:18:46;;;;;;;47.03;9.70;;;;;;;1.30;100.00;101836.06;4991652;28;20301;-77
2021/03/18 05:21:11;;;;;;;44.80;9.20;;;;;;;1.34;100.00;101825.16;4989305;28;20758;-77
2021/03/18 05:23:39;;;;;;;36.43;8.77;;;;;;;1.34;100.00;101825.16;4980985;28;20364;-76
2021/03/18 05:26:05;;;;;;;46.20;10.00;;;;;;;1.37;100.00;101822.75;4990229;28;20030;-76
2021/03/18 05:28:30;;;;;;;50.70;9.90;;;;;;;1.36;100.00;101805.50;4990659;28;20619;-76
2021/03/18 05:30:56;;;;;;;42.00;9.63;;;;;;;1.36;100.00;101805.50;4987778;28;20025;-76
2021/03/18 05:33:22;;;;;;;45.07;10.37;;;;;;;1.45;100.00;101806.00;4991673;28;20034;-77
2021/03/18 05:35:47;;;;;;;52.07;9.10;;;;;;;1.48;100.00;101811.34;4989944;28;20050;-77
2021/03/18 05:38:15;;;;;;;37.93;8.43;;;;;;;1.49;100.00;101807.97;4992036;28;20044;-77
2021/03/18 05:40:43;;;;;;;40.93;9.53;;;;;;;1.53;100.00;101809.91;4990609;28;20138;-76
2021/03/18 05:43:09;;;;;;;36.73;10.27;;;;;;;1.56;100.00;101815.22;4986807;28;20376;-76
2021/03/18 05:45:36;;;;;;;41.03;8.13;;;;;;;1.62;100.00;101802.69;4991295;28;20883;-76
2021/03/18 05:48:02;;;;;;;40.90;9.17;;;;;;;1.66;100.00;101796.88;4990887;28;20289;-76
2021/03/18 05:50:28;;;;;;;42.40;9.47;;;;;;;1.67;100.00;101792.63;4986229;28;20303;-77
2021/03/18 05:52:54;;;;;;;39.83;9.13;;;;;;;1.75;100.00;101787.09;4993422;28;20285;-77
2021/03/18 05:55:22;;;;;;;37.33;7.60;;;;;;;1.74;100.00;101787.88;4984802;28;20490;-77
2021/03/18 05:57:50;;;;;;;40.43;9.03;;;;;;;1.82;100.00;101795.13;4988234;28;20481;-77
2021/03/18 06:00:17;;;;;;;37.93;8.93;;;;;;;1.84;100.00;101790.97;4979064;28;20825;-77
2021/03/18 06:02:42;;;;;;;33.87;8.33;;;;;;;1.90;100.00;101791.28;4990995;28;20272;-77
2021/03/18 06:05:14;;;;;;;37.23;8.43;;;;;;;1.96;100.00;101781.31;4987770;28;20277;-77
2021/03/18 06:07:41;;;;;;;28.13;9.33;;;;;;;1.99;100.00;101781.47;4984830;28;20027;-77
2021/03/18 06:10:12;;;;;;;25.53;6.77;;;;;;;2.02;100.00;101781.63;4987562;28;20765;-76
2021/03/18 06:12:39;;;;;;;28.50;7.67;;;;;;;1.95;100.00;101771.81;4985482;28;20305;-76
2021/03/18 06:15:10;;;;;;;29.47;7.77;;;;;;;2.07;100.00;101784.47;4987791;28;20289;-76
2021/03/18 06:17:36;;;;;;;29.73;8.17;;;;;;;2.13;100.00;101788.25;4963922;28;20359;-76
2021/03/18 06:20:05;;;;;;;36.13;9.90;;;;;;;2.22;100.00;101800.75;4991029;28;20326;-76
2021/03/18 06:22:39;;;;;;;28.33;8.50;;;;;;;2.25;100.00;101793.16;4988792;28;20114;-77
2021/03/18 06:25:18;;;;;;;27.97;8.00;;;;;;;2.26;100.00;101795.81;4983089;28;20277;-77
2021/03/18 06:27:43;;;;;;;24.50;7.53;;;;;;;2.41;100.00;101797.44;4988965;28;20626;-78
2021/03/18 06:30:11;;;;;;;27.73;7.20;;;;;;;2.44;100.00;101800.19;4986206;28;20274;-76
2021/03/18 06:32:36;;;;;;;23.50;7.87;;;;;;;2.47;100.00;101802.94;4989704;28;20026;-77
2021/03/18 06:35:02;;;;;;;26.33;7.50;;;;;;;2.63;100.00;101810.66;4991448;28;20284;-76
2021/03/18 06:37:36;;;;;;;18.63;6.33;;;;;;;2.74;100.00;101796.59;4991332;28;20018;-78
2021/03/18 06:40:11;;;;;;;24.37;6.70;;;;;;;2.86;100.00;101799.78;4988696;28;20042;-76
2021/03/18 06:42:37;;;;;;;18.03;6.80;;;;;;;2.99;100.00;101797.81;4987459;28;20744;-76
2021/03/18 06:45:06;;;;;;;21.07;6.43;;;;;;;3.20;100.00;101801.47;4993999;28;20966;-77
2021/03/18 06:47:47;;;;;;;22.87;6.57;;;;;;;3.32;100.00;101807.25;4987171;28;20758;-77
2021/03/18 06:50:20;;;;;;;21.20;6.33;;;;;;;3.45;100.00;101808.72;4987814;28;20281;-78
2021/03/18 06:52:46;;;;;;;19.37;5.70;;;;;;;3.49;100.00;101806.34;4992744;28;20676;-78
2021/03/18 06:55:23;;;;;;;17.93;6.50;;;;;;;3.60;100.00;101813.72;4997258;28;20284;-77
2021/03/18 06:57:49;;;;;;;20.50;6.43;;;;;;;3.56;100.00;101814.41;4985768;28;20026;-78
2021/03/18 07:00:34;;;;;;;20.17;6.73;;;;;;;3.66;100.00;101812.34;4988049;28;20292;-77
2021/03/18 07:02:59;;;;;;;21.37;6.70;;;;;;;3.82;100.00;101811.34;4989199;28;20030;-78
2021/03/18 07:05:25;;;;;;;26.17;7.83;;;;;;;4.00;100.00;101812.22;4996673;28;20737;-77
2021/03/18 07:07:50;;;;;;;17.97;5.97;;;;;;;4.13;100.00;101810.19;4996018;28;20509;-77
2021/03/18 07:10:31;;;;;;;17.67;6.13;;;;;;;4.21;100.00;101813.97;4990401;28;20528;-77
2021/03/18 07:13:17;;;;;;;18.83;5.70;;;;;;;4.11;100.00;101805.78;4999874;28;20050;-77
2021/03/18 07:15:43;;;;;;;18.10;6.27;;;;;;;4.27;100.00;101799.63;4993966;28;20653;-78
2021/03/18 07:18:11;;;;;;;17.03;6.10;;;;;;;4.20;100.00;101802.75;4999218;28;20728;-77
2021/03/18 07:20:37;;;;;;;17.33;6.00;;;;;;;4.21;100.00;101790.69;4991602;28;20339;-77
2021/03/18 07:23:16;;;;;;;18.20;6.10;;;;;;;4.40;100.00;101793.28;4990117;28;20372;-77
2021/03/18 07:25:47;;;;;;;20.53;6.37;;;;;;;4.31;100.00;101793.75;4987580;28;20036;-77
2021/03/18 07:28:14;;;;;;;16.43;6.10;;;;;;;4.17;100.00;101784.50;4993964;28;20738;-77
2021/03/18 07:30:41;;;;;;;18.67;5.97;;;;;;;4.25;100.00;101797.78;4995164;28;20630;-78
2021/03/18 07:33:07;;;;;;;21.63;6.50;;;;;;;4.37;100.00;101785.38;4992397;28;20034;-77
2021/03/18 07:35:34;;;;;;;19.10;6.70;;;;;;;4.43;100.00;101793.41;4994747;28;20030;-79
2021/03/18 07:38:00;;;;;;;17.73;6.27;;;;;;;4.35;100.00;101794.75;4994799;28;20030;-78
2021/03/18 07:40:27;;;;;;;16.90;5.60;;;;;;;4.24;100.00;101796.00;4990465;28;20030;-78
2021/03/18 07:42:54;;;;;;;16.37;5.70;;;;;;;4.21;100.00;101798.44;4994493;28;20482;-77
2021/03/18 07:45:23;;;;;;;16.23;5.33;;;;;;;4.08;100.00;101790.13;4993657;28;20321;-77
2021/03/18 07:47:49;;;;;;;18.40;6.40;;;;;;;3.99;100.00;101800.06;4993397;28;20029;-79
2021/03/18 07:50:18;;;;;;;16.63;6.00;;;;;;;4.04;100.00;101789.94;4991817;28;20290;-78
2021/03/18 07:52:45;;;;;;;16.50;5.93;;;;;;;4.19;100.00;101787.13;4994680;28;20281;-78
2021/03/18 07:55:15;;;;;;;14.80;5.57;;;;;;;4.19;100.00;101782.84;4993580;28;20289;-77
2021/03/18 07:57:43;;;;;;;15.27;5.80;;;;;;;4.30;100.00;101783.34;4993864;28;20292;-77
2021/03/18 08:00:14;;;;;;;14.30;5.80;;;;;;;4.75;100.00;101783.56;4994277;28;20282;-77
2021/03/18 08:02:39;;;;;;;13.10;5.20;;;;;;;5.11;100.00;101779.91;4991808;28;20467;-77
2021/03/18 08:05:05;;;;;;;10.90;4.53;;;;;;;5.33;100.00;101784.28;4996219;28;20045;-76
2021/03/18 08:07:40;;;;;;;12.90;5.17;;;;;;;5.52;100.00;101775.50;4993460;28;20038;-78
2021/03/18 08:10:30;;;;;;;12.67;4.53;;;;;;;6.00;100.00;101783.44;4990933;28;20100;-78
2021/03/18 08:13:05;;;;;;;13.67;5.17;;;;;;;5.91;100.00;101783.06;4982750;28;20046;-77
2021/03/18 08:15:39;;;;;;;13.60;4.90;;;;;;;6.12;97.94;101781.28;4993589;28;20034;-77
2021/03/18 08:18:14;;;;;;;11.47;4.90;;;;;;;6.23;98.65;101785.16;4996236;28;20061;-77
2021/03/18 08:20:42;;;;;;;10.40;3.93;;;;;;;6.69;93.09;101786.81;5012214;28;20076;-77
2021/03/18 08:23:23;;;;;;;11.27;4.33;;;;;;;5.76;96.93;101779.03;5013721;28;20038;-77
2021/03/18 08:26:01;;;;;;;10.90;3.93;;;;;;;5.81;99.03;101779.19;5015599;28;20470;-77
2021/03/18 08:28:46;;;;;;;11.60;4.00;;;;;;;5.86;97.63;101782.88;5012425;28;20042;-77
2021/03/18 08:31:25;;;;;;;8.30;3.77;;;;;;;5.91;99.94;101770.97;5012969;28;20029;-78
2021/03/18 08:33:55;;;;;;;7.83;3.37;;;;;;;5.87;97.44;101772.53;5012264;28;20371;-78
2021/03/18 08:36:33;;;;;;;9.60;3.30;;;;;;;6.24;93.80;101766.16;5012533;28;20052;-78
2021/03/18 08:39:05;;;;;;;8.50;3.97;;;;;;;6.94;90.46;101771.22;5011357;28;20378;-77
2021/03/18 08:41:43;;;;;;;11.38;3.47;;;;;;;7.43;88.63;101770.19;5011326;28;20022;-78
2021/03/18 08:44:26;;;;;;;9.83;3.83;;;;;;;6.95;89.63;101759.97;5012416;28;20040;-78
2021/03/18 08:46:56;;;;;;;8.80;3.70;;;;;;;6.63;90.01;101763.19;5008501;28;20029;-78
2021/03/18 08:49:29;;;;;;;9.90;3.67;;;;;;;6.26;92.90;101754.09;5011903;28;20032;-78
2021/03/18 08:51:59;;;;;;;9.47;3.73;;;;;;;6.20;91.31;101748.69;5012675;28;20065;-78
2021/03/18 08:54:50;;;;;;;10.57;3.63;;;;;;;5.83;93.40;101744.72;5012390;28;20041;-78
2021/03/18 08:57:28;;;;;;;10.20;3.60;;;;;;;6.38;90.23;101754.53;5010389;28;20121;-78
2021/03/18 08:59:57;;;;;;;7.00;3.50;;;;;;;7.87;86.16;101763.75;5011895;28;20028;-78
2021/03/18 09:02:31;;;;;;;11.37;3.10;;;;;;;8.60;82.05;101764.06;5011483;28;20040;-78
2021/03/18 09:05:03;;;;;;;8.47;3.40;;;;;;;6.89;87.16;101757.16;5005762;28;20059;-78
2021/03/18 09:07:30;;;;;;;7.03;3.15;;;;;;;6.95;87.36;101759.97;5012296;28;20120;-77
2021/03/18 09:10:21;;;;;;;9.07;3.90;;;;;;;6.15;91.83;101755.41;5013033;28;20148;-78
2021/03/18 09:12:53;;;;;;;10.43;4.00;;;;;;;6.73;91.65;101753.16;5010399;28;20486;-78
2021/03/18 09:15:31;;;;;;;11.00;3.90;;;;;;;7.18;88.52;101752.03;5011719;28;20092;-78
2021/03/18 09:18:12;;;;;;;9.13;3.00;;;;;;;6.72;87.87;101745.31;5005785;28;20133;-78
2021/03/18 09:20:40;;;;;;;7.70;3.63;;;;;;;6.71;89.63;101749.63;5009979;28;20034;-78
2021/03/18 09:23:13;;;;;;;11.10;3.30;;;;;;;5.92;93.77;101748.50;5011244;28;20029;-78
2021/03/18 09:25:40;;;;;;;8.80;3.40;;;;;;;6.28;91.71;101749.84;5012887;28;20339;-78
2021/03/18 09:28:07;;;;;;;9.23;3.30;;;;;;;6.00;90.17;101762.66;5007348;28;20022;-78
2021/03/18 09:30:35;;;;;;;7.10;3.20;;;;;;;6.55;88.71;101747.34;5012792;28;20459;-78
2021/03/18 09:33:14;;;;;;;6.27;3.10;;;;;;;6.99;85.98;101760.94;5010566;28;20411;-78
2021/03/18 09:35:40;;;;;;;7.93;3.57;;;;;;;7.58;81.73;101754.16;5011108;28;20030;-77
2021/03/18 09:38:14;;;;;;;4.77;2.33;;;;;;;8.06;76.57;101757.34;5011629;28;20136;-78
2021/03/18 09:40:39;;;;;;;7.03;2.80;;;;;;;8.14;78.20;101747.16;5013080;28;20577;-78
2021/03/18 09:43:05;;;;;;;8.10;3.27;;;;;;;8.52;77.18;101750.84;5010825;28;20041;-78
2021/03/18 09:45:31;;;;;;;8.30;3.20;;;;;;;8.26;79.95;101741.41;5010900;28;20044;-78
2021/03/18 09:47:57;;;;;;;8.57;3.80;;;;;;;7.09;86.34;101737.00;5012024;28;20061;-77
2021/03/18 09:50:25;;;;;;;9.50;3.73;;;;;;;6.76;88.50;101731.59;5012504;28;20022;-77
2021/03/18 09:53:01;;;;;;;10.43;4.00;;;;;;;6.63;88.24;101730.28;5011585;28;20049;-78
2021/03/18 09:55:26;;;;;;;10.77;4.50;;;;;;;6.84;90.61;101724.94;5012990;28;20112;-78
2021/03/18 09:57:51;;;;;;;8.70;3.43;;;;;;;7.10;88.85;101732.69;5011275;28;20029;-78
2021/03/18 10:00:17;;;;;;;8.97;3.77;;;;;;;7.16;86.71;101728.59;5002378;28;20038;-78
2021/03/18 10:02:43;;;;;;;7.47;2.77;;;;;;;6.70;85.61;101723.59;5013506;28;20037;-78
2021/03/18 10:05:09;;;;;;;6.83;2.57;;;;;;;6.80;83.01;101725.66;5011465;28;20054;-78
2021/03/18 10:07:35;;;;;;;8.37;2.83;;;;;;;6.79;82.21;101721.31;5010341;28;20070;-78
2021/03/18 10:10:01;;;;;;;8.30;2.50;;;;;;;7.46;81.28;101717.34;5012078;28;20018;-78
2021/03/18 10:12:29;;;;;;;6.53;2.70;;;;;;;7.10;79.21;101719.69;5009109;28;20070;-78
2021/03/18 10:15:03;;;;;;;6.97;2.60;;;;;;;7.25;79.54;101722.78;5011162;28;20030;-77
2021/03/18 10:17:35;;;;;;;5.80;2.60;;;;;;;7.77;77.35;101712.25;5010775;28;20022;-77
2021/03/18 10:20:07;;;;;;;6.30;2.70;;;;;;;7.67;76.72;101722.34;4981490;28;20031;-77
2021/03/18 10:22:37;;;;;;;6.40;2.40;;;;;;;7.47;75.67;101720.00;4987775;28;20079;-78
2021/03/18 10:25:08;;;;;;;6.20;2.50;;;;;;;7.73;77.47;101712.09;4979571;28;20774;-77
2021/03/18 10:27:46;;;;;;;8.73;2.40;;;;;;;7.51;78.60;101706.28;4983894;28;20443;-78
2021/03/18 10:30:18;;;;;;;7.53;2.83;;;;;;;7.37;78.92;101706.66;4986194;28;20153;-77
2021/03/18 10:33:13;;;;;;;6.03;2.40;;;;;;;7.06;80.53;101697.91;4987922;28;20046;-78
2021/03/18 10:35:59;;;;;;;7.60;3.00;;;;;;;6.86;82.94;101694.66;4988080;28;20027;-78
2021/03/18 10:38:30;;;;;;;9.27;3.43;;;;;;;7.32;84.42;101699.59;4966417;28;20089;-78
2021/03/18 10:40:58;;;;;;;7.43;2.80;;;;;;;7.49;82.03;101697.50;4984068;28;20051;-78
2021/03/18 10:43:29;;;;;;;9.30;3.13;;;;;;;7.45;80.80;101694.78;4984581;28;20035;-78
2021/03/18 10:45:59;;;;;;;9.82;3.70;;;;;;;7.71;82.46;101692.94;4970652;28;20030;-79
2021/03/18 10:48:27;;;;;;;7.23;2.87;;;;;;;7.96;78.10;101685.00;4976063;28;20040;-78
2021/03/18 10:50:54;;;;;;;9.70;2.77;;;;;;;7.23;76.53;101688.03;4982344;28;20029;-78
2021/03/18 10:53:22;;;;;;;8.00;3.10;;;;;;;7.60;78.00;101682.22;4987187;28;20034;-77
2021/03/18 10:55:52;;;;;;;9.23;3.47;;;;;;;7.48;78.96;101680.13;4993045;28;20019;-77
2021/03/18 10:58:22;;;;;;;7.43;3.13;;;;;;;7.35;81.55;101680.59;4977154;28;20538;-77
2021/03/18 11:00:57;;;;;;;10.87;3.10;;;;;;;7.43;78.11;101692.13;4984138;28;20021;-78
2021/03/18 11:03:28;;;;;;;8.13;3.10;;;;;;;7.27;79.82;101696.00;4983077;28;20035;-78
2021/03/18 11:05:55;;;;;;;8.05;3.60;;;;;;;7.08;81.79;101690.16;4991205;28;20037;-78
2021/03/18 11:08:32;;;;;;;6.93;3.00;;;;;;;6.86;81.96;101681.66;4993987;28;20046;-78
2021/03/18 11:11:12;;;;;;;6.63;3.00;;;;;;;6.82;83.19;101684.13;4967675;28;21573;-78
2021/03/18 11:13:38;;;;;;;6.33;2.87;;;;;;;7.08;82.36;101667.63;4991686;28;20034;-78
2021/03/18 11:16:05;;;;;;;7.07;2.60;;;;;;;7.02;82.62;101664.81;4981679;28;20077;-78
2021/03/18 11:18:38;;;;;;;7.57;3.20;;;;;;;7.03;81.00;101674.41;4993233;28;20073;-77
2021/03/18 11:21:17;;;;;;;8.40;2.70;;;;;;;6.83;80.56;101665.09;5013809;28;20112;-77
2021/03/18 11:23:43;;;;;;;7.70;2.90;;;;;;;6.57;86.02;101662.53;5013964;28;20026;-78
2021/03/18 11:26:08;;;;;;;7.63;3.33;;;;;;;5.79;92.14;101646.78;5012640;28;20025;-78
2021/03/18 11:28:37;;;;;;;8.50;3.23;;;;;;;5.67;95.93;101661.91;5014686;28;20490;-78
2021/03/18 11:31:16;;;;;;;7.03;3.07;;;;;;;5.49;97.42;101650.84;5014338;28;20032;-78
2021/03/18 11:33:41;;;;;;;9.33;2.97;;;;;;;5.40;99.67;101637.53;5013547;28;20026;-78